Pelagia — PGRQ — position and weather

sailwx.info

Track history (hours):
 
Tides and Currents Weather Stations Pressure Air Temp Water Temp Dewpoint Dewpoint Depression Visibility Wind Speed Wind Dir Waves Ship Positions

Oceanographic research ship Pelagia (Netherlands)

Detailed information on ship capabilities available from University of Delaware's Ocean Information Center and ARCUS's ALIAS (Arctic Logistics Information and Support) project.

Last reported at 2018-Feb-23 17:27 UTC. Time now 2018-Feb-23 17:57 UTC.
Position N 17°43' W 063°34'.

Length 66 m; beam 13 m.

Type: Other ship. MMSI: 244925000.

Date/timePositionNaut miles runAvg speedWind from/ knotsBaromVisibWave heightAir tempDewpointWater temp
2018-Feb-23 17:27N 17°43' W 063°34'0 0.7
2018-Feb-23 16:51N 17°43' W 063°34'3 8.0
2018-Feb-23 16:30N 17°44' W 063°31'1 2.3
2018-Feb-23 15:57N 17°44' W 063°29'0 0.6
2018-Feb-23 15:28N 17°44' W 063°30'0 0.6
2018-Feb-23 14:39N 17°43' W 063°30'0 0.6
2018-Feb-23 14:29N 17°43' W 063°30'0 0.4
2018-Feb-23 13:59N 17°43' W 063°30'3 5.9
2018-Feb-23 13:28N 17°40' W 063°30'5 3.1
2018-Feb-23 11:50N 17°35' W 063°30'3 9.5
2018-Feb-23 11:29N 17°38' W 063°28'3 3.5
2018-Feb-23 10:42N 17°37' W 063°30'1 2.0
2018-Feb-23 10:14N 17°38' W 063°30'1 5.6
2018-Feb-23 09:58N 17°39' W 063°29'2 3.0
2018-Feb-23 09:26N 17°40' W 063°29'2 1.1
2018-Feb-23 07:53N 17°41' W 063°30'2 5.8
2018-Feb-23 07:30N 17°40' W 063°28'1 1.5
2018-Feb-23 06:57N 17°41' W 063°29'0 0.7
2018-Feb-23 06:24N 17°41' W 063°29'2 4.5
2018-Feb-23 06:00N 17°41' W 063°31'3 4.4
2018-Feb-23 05:23N 17°41' W 063°28'2 2.5
2018-Feb-23 04:46N 17°41' W 063°30'1 4.1
2018-Feb-23 04:29N 17°41' W 063°31'2 4.4
2018-Feb-23 04:00N 17°41' W 063°29'1 1.1
2018-Feb-23 03:25N 17°42' W 063°29'1 2.3
2018-Feb-23 03:00N 17°42' W 063°30'1 1.2
2018-Feb-23 02:30N 17°42' W 063°30'1 2.8
2018-Feb-23 02:00N 17°42' W 063°28'1 2.2
2018-Feb-23 01:29N 17°42' W 063°30'1 1.2
2018-Feb-23 01:00N 17°42' W 063°29'2 3.9
2018-Feb-23 00:30N 17°42' W 063°31'29 1.3
2018-Feb-22 02:24N 17°14' W 063°25'4 0.3
2018-Feb-21 12:42N 17°15' W 063°21'0 0.3
2018-Feb-21 11:56N 17°15' W 063°22'0 0.1
2018-Feb-21 09:30N 17°15' W 063°22'0 0.6
2018-Feb-21 08:55N 17°15' W 063°22'1 2.8
2018-Feb-21 08:26N 17°14' W 063°23'6 1.0
2018-Feb-21 02:27N 17°09' W 063°27'4 5.9
2018-Feb-21 01:51N 17°11' W 063°24'5 2.5
2018-Feb-20 23:48N 17°15' W 063°22'0 0.5
2018-Feb-20 23:13N 17°15' W 063°21'0 0.2
2018-Feb-20 21:49N 17°15' W 063°22'1 0.1
2018-Feb-20 15:04N 17°16' W 063°21'0 5.5
2018-Feb-20 15:00N 17°16' W 063°21'1 0.2
2018-Feb-20 12:24N 17°16' W 063°21'1 1.4
2018-Feb-20 11:29N 17°16' W 063°23'1 0.5
2018-Feb-20 10:25N 17°16' W 063°23'2 2.8
2018-Feb-20 09:47N 17°16' W 063°21'0 1.0
2018-Feb-20 09:20N 17°16' W 063°21'2 4.7
2018-Feb-20 08:54N 17°16' W 063°23'1 1.8
2018-Feb-20 08:24N 17°16' W 063°22'1 1.7
2018-Feb-20 07:41N 17°15' W 063°21'1 1.2
2018-Feb-20 06:46N 17°15' W 063°22'2 5.3
2018-Feb-20 06:27N 17°15' W 063°20'1 2.4
2018-Feb-20 05:56N 17°15' W 063°21'2 4.1
2018-Feb-20 05:26N 17°15' W 063°23'2 3.2
2018-Feb-20 04:49N 17°13' W 063°25'2 5.1
2018-Feb-20 04:26N 17°11' W 063°24'2 5.3
2018-Feb-20 03:59N 17°09' W 063°24'2 0.5
2018-Feb-20 00:28N 17°11' W 063°24'1 1.0
2018-Feb-19 23:58N 17°11' W 063°24'1 1.2
2018-Feb-19 23:29N 17°12' W 063°24'0 0.3
2018-Feb-19 22:05N 17°12' W 063°24'0 0.1
2018-Feb-19 22:00N 17°12' W 063°24'1 1.2
2018-Feb-19 21:08N 17°13' W 063°24'0 0.0
2018-Feb-19 20:35N 17°13' W 063°24'0 2.9
2018-Feb-19 20:30N 17°13' W 063°24'1 1.5
2018-Feb-19 19:59N 17°14' W 063°24'1 1.3
2018-Feb-19 19:30N 17°15' W 063°24'0 0.6
2018-Feb-19 18:55N 17°15' W 063°24'1 1.7
2018-Feb-19 18:30N 17°16' W 063°24'0 0.5
2018-Feb-19 17:56N 17°16' W 063°24'1 0.7
2018-Feb-19 17:00N 17°16' W 063°24'11 5.1
2018-Feb-19 14:53N 17°24' W 063°17'3 7.5
2018-Feb-19 14:30N 17°27' W 063°17'4 7.7
2018-Feb-19 13:59N 17°31' W 063°17'4 7.7
2018-Feb-19 13:28N 17°35' W 063°16'3 5.8
2018-Feb-19 13:00N 17°38' W 063°16'1 0.8
2018-Feb-19 12:13N 17°37' W 063°16'1 7.2
2018-Feb-19 12:00N 17°38' W 063°17'3 5.9
2018-Feb-19 11:27N 17°39' W 063°20'8 5.7
2018-Feb-19 10:02N 17°42' W 063°28'0 5.9
2018-Feb-19 09:57N 17°42' W 063°29'2 3.9
2018-Feb-19 09:22N 17°42' W 063°31'2 5.5
2018-Feb-19 09:00N 17°42' W 063°29'1 1.7
2018-Feb-19 08:25N 17°43' W 063°30'0 0.8
2018-Feb-19 07:50N 17°43' W 063°30'2 5.3
2018-Feb-19 07:30N 17°43' W 063°28'2 2.9
2018-Feb-19 06:57N 17°43' W 063°30'0 0.3
2018-Feb-19 06:28N 17°43' W 063°30'1 1.3
2018-Feb-19 05:49N 17°43' W 063°29'2 3.0
2018-Feb-19 05:15N 17°43' W 063°31'1 5.6
2018-Feb-19 05:00N 17°43' W 063°30'0 0.8
2018-Feb-19 04:26N 17°43' W 063°30'0 0.3
2018-Feb-19 03:51N 17°44' W 063°30'1 2.7
2018-Feb-19 03:24N 17°44' W 063°29'2 2.1
2018-Feb-19 02:14N 17°43' W 063°31'2 0.1
2018-Feb-18 11:18N 17°44' W 063°34'2 6.3
2018-Feb-18 10:56N 17°44' W 063°31'2 5.5
2018-Feb-18 10:30N 17°44' W 063°29'3 4.0
2018-Feb-18 09:48N 17°44' W 063°32'1 2.8
2018-Feb-18 09:22N 17°44' W 063°30'1 1.8
2018-Feb-18 08:48N 17°44' W 063°29'2 5.4
2018-Feb-18 08:28N 17°44' W 063°31'1 1.4
2018-Feb-18 08:00N 17°45' W 063°30'2 3.6
2018-Feb-18 07:26N 17°45' W 063°28'2 5.0
2018-Feb-18 06:58N 17°45' W 063°31'1 2.0
2018-Feb-18 06:25N 17°46' W 063°30'1 1.4
2018-Feb-18 05:57N 17°45' W 063°29'1 2.1
2018-Feb-18 05:27N 17°45' W 063°30'1 1.6
2018-Feb-18 05:00N 17°45' W 063°30'2 4.9
2018-Feb-18 04:30N 17°46' W 063°27'3 5.2
2018-Feb-18 03:58N 17°45' W 063°30'0 0.7
2018-Feb-18 03:26N 17°45' W 063°30'3 6.0
2018-Feb-18 02:58N 17°45' W 063°27'2 4.4
2018-Feb-18 02:29N 17°45' W 063°29'2 0.1
2018-Feb-17 08:26N 17°44' W 063°32'3 1.4
2018-Feb-17 06:31N 17°46' W 063°34'0 5.8
2018-Feb-17 06:30N 17°46' W 063°34'12 0.9
2018-Feb-16 16:57N 17°35' W 063°31'1 1.1
2018-Feb-16 15:57N 17°35' W 063°30'1 1.3
2018-Feb-16 15:04N 17°34' W 063°30'0 0.4
2018-Feb-16 14:54N 17°34' W 063°30'0 0.5
2018-Feb-16 14:29N 17°34' W 063°29'5 1.3
2018-Feb-16 10:30N 17°38' W 063°32'2 1.8
2018-Feb-16 09:39N 17°38' W 063°31'1 3.2
2018-Feb-16 09:18N 17°38' W 063°30'2 3.2
2018-Feb-16 08:49N 17°38' W 063°28'1 3.3
2018-Feb-16 08:28N 17°38' W 063°27'2 3.3
2018-Feb-16 07:58N 17°38' W 063°25'4 7.8
2018-Feb-16 07:30N 17°37' W 063°21'5 7.3
2018-Feb-16 06:47N 17°35' W 063°16'3 7.3
2018-Feb-16 06:21N 17°33' W 063°14'3 7.4
2018-Feb-16 05:59N 17°32' W 063°11'19 4.8
2018-Feb-16 02:00N 17°16' W 063°22'3 1.0
2018-Feb-15 23:25N 17°15' W 063°25'2 5.0
2018-Feb-15 22:56N 17°15' W 063°22'1 0.1
2018-Feb-15 06:44N 17°15' W 063°21'15 6.3
2018-Feb-15 04:22N 17°26' W 063°10'3 8.5
2018-Feb-15 03:59N 17°29' W 063°10'12 6.9
2018-Feb-15 02:16N 17°37' W 063°19'2 7.0
2018-Feb-15 01:58N 17°37' W 063°22'4 6.8
2018-Feb-15 01:25N 17°38' W 063°25'6 1.5
2018-Feb-14 21:08N 17°39' W 063°32'0 0.1
2018-Feb-14 20:40N 17°38' W 063°32'1 1.0
2018-Feb-14 19:41N 17°39' W 063°33'0 0.1
2018-Feb-14 19:17N 17°39' W 063°33'0 0.6
2018-Feb-14 18:57N 17°39' W 063°33'0 0.4
2018-Feb-14 18:17N 17°39' W 063°33'0 0.6
2018-Feb-14 17:57N 17°39' W 063°34'13 0.9
2018-Feb-14 03:05N 17°49' W 063°41'1 9.1
2018-Feb-14 02:57N 17°50' W 063°40'5 9.3
2018-Feb-14 02:24N 17°51' W 063°35'4 9.5
2018-Feb-14 01:59N 17°53' W 063°31'5 9.2
2018-Feb-14 01:27N 17°54' W 063°26'5 9.5
2018-Feb-14 00:58N 17°55' W 063°21'5 9.5
2018-Feb-14 00:27N 17°56' W 063°16'5 9.8
2018-Feb-13 23:59N 17°58' W 063°11'6 9.4
2018-Feb-13 23:23N 17°60' W 063°06'3 5.6
2018-Feb-13 22:50N 18°00' W 063°03'0 0.0
2018-Feb-13 22:23N 18°00' W 063°03'0 0.0
2018-Feb-13 21:53N 18°00' W 063°03'0 0.0
2018-Feb-13 21:23N 18°00' W 063°03'0 0.0
2018-Feb-13 20:52N 18°00' W 063°03'0 0.0
2018-Feb-13 20:22N 18°00' W 063°03'0 0.0
2018-Feb-13 19:53N 18°00' W 063°03'0 0.0
2018-Feb-13 19:22N 18°00' W 063°03'0 0.2
2018-Feb-13 18:52N 18°01' W 063°03'0 0.0
2018-Feb-13 18:25N 18°01' W 063°03'0 0.0
2018-Feb-13 17:55N 18°01' W 063°03'  
Track history (hours):
 
Tides and Currents Weather Stations Pressure Air Temp Water Temp Dewpoint Dewpoint Depression Visibility Wind Speed Wind Dir Waves Ship Positions

Oceanographic research ship Pelagia (Netherlands)

Detailed information on ship capabilities available from University of Delaware's Ocean Information Center and ARCUS's ALIAS (Arctic Logistics Information and Support) project.

Last reported at 2018-Feb-23 17:27 UTC. Time now 2018-Feb-23 17:57 UTC.
Position N 17°43' W 063°34'.

Length 66 m; beam 13 m.

Type: Other ship. MMSI: 244925000.

Date/timePositionNaut miles runAvg speedWind from/ knotsBaromVisibWave heightAir tempDewpointWater temp
2018-Feb-23 17:27N 17°43' W 063°34'0 0.7
2018-Feb-23 16:51N 17°43' W 063°34'3 8.0
2018-Feb-23 16:30N 17°44' W 063°31'1 2.3
2018-Feb-23 15:57N 17°44' W 063°29'0 0.6
2018-Feb-23 15:28N 17°44' W 063°30'0 0.6
2018-Feb-23 14:39N 17°43' W 063°30'0 0.6
2018-Feb-23 14:29N 17°43' W 063°30'0 0.4
2018-Feb-23 13:59N 17°43' W 063°30'3 5.9
2018-Feb-23 13:28N 17°40' W 063°30'5 3.1
2018-Feb-23 11:50N 17°35' W 063°30'3 9.5
2018-Feb-23 11:29N 17°38' W 063°28'3 3.5
2018-Feb-23 10:42N 17°37' W 063°30'1 2.0
2018-Feb-23 10:14N 17°38' W 063°30'1 5.6
2018-Feb-23 09:58N 17°39' W 063°29'2 3.0
2018-Feb-23 09:26N 17°40' W 063°29'2 1.1
2018-Feb-23 07:53N 17°41' W 063°30'2 5.8
2018-Feb-23 07:30N 17°40' W 063°28'1 1.5
2018-Feb-23 06:57N 17°41' W 063°29'0 0.7
2018-Feb-23 06:24N 17°41' W 063°29'2 4.5
2018-Feb-23 06:00N 17°41' W 063°31'3 4.4
2018-Feb-23 05:23N 17°41' W 063°28'2 2.5
2018-Feb-23 04:46N 17°41' W 063°30'1 4.1
2018-Feb-23 04:29N 17°41' W 063°31'2 4.4
2018-Feb-23 04:00N 17°41' W 063°29'1 1.1
2018-Feb-23 03:25N 17°42' W 063°29'1 2.3
2018-Feb-23 03:00N 17°42' W 063°30'1 1.2
2018-Feb-23 02:30N 17°42' W 063°30'1 2.8
2018-Feb-23 02:00N 17°42' W 063°28'1 2.2
2018-Feb-23 01:29N 17°42' W 063°30'1 1.2
2018-Feb-23 01:00N 17°42' W 063°29'2 3.9
2018-Feb-23 00:30N 17°42' W 063°31'29 1.3
2018-Feb-22 02:24N 17°14' W 063°25'4 0.3
2018-Feb-21 12:42N 17°15' W 063°21'0 0.3
2018-Feb-21 11:56N 17°15' W 063°22'0 0.1
2018-Feb-21 09:30N 17°15' W 063°22'0 0.6
2018-Feb-21 08:55N 17°15' W 063°22'1 2.8
2018-Feb-21 08:26N 17°14' W 063°23'6 1.0
2018-Feb-21 02:27N 17°09' W 063°27'4 5.9
2018-Feb-21 01:51N 17°11' W 063°24'5 2.5
2018-Feb-20 23:48N 17°15' W 063°22'0 0.5
2018-Feb-20 23:13N 17°15' W 063°21'0 0.2
2018-Feb-20 21:49N 17°15' W 063°22'1 0.1
2018-Feb-20 15:04N 17°16' W 063°21'0 5.5
2018-Feb-20 15:00N 17°16' W 063°21'1 0.2
2018-Feb-20 12:24N 17°16' W 063°21'1 1.4
2018-Feb-20 11:29N 17°16' W 063°23'1 0.5
2018-Feb-20 10:25N 17°16' W 063°23'2 2.8
2018-Feb-20 09:47N 17°16' W 063°21'0 1.0
2018-Feb-20 09:20N 17°16' W 063°21'2 4.7
2018-Feb-20 08:54N 17°16' W 063°23'1 1.8
2018-Feb-20 08:24N 17°16' W 063°22'1 1.7
2018-Feb-20 07:41N 17°15' W 063°21'1 1.2
2018-Feb-20 06:46N 17°15' W 063°22'2 5.3
2018-Feb-20 06:27N 17°15' W 063°20'1 2.4
2018-Feb-20 05:56N 17°15' W 063°21'2 4.1
2018-Feb-20 05:26N 17°15' W 063°23'2 3.2
2018-Feb-20 04:49N 17°13' W 063°25'2 5.1
2018-Feb-20 04:26N 17°11' W 063°24'2 5.3
2018-Feb-20 03:59N 17°09' W 063°24'2 0.5
2018-Feb-20 00:28N 17°11' W 063°24'1 1.0
2018-Feb-19 23:58N 17°11' W 063°24'1 1.2
2018-Feb-19 23:29N 17°12' W 063°24'0 0.3
2018-Feb-19 22:05N 17°12' W 063°24'0 0.1
2018-Feb-19 22:00N 17°12' W 063°24'1 1.2
2018-Feb-19 21:08N 17°13' W 063°24'0 0.0
2018-Feb-19 20:35N 17°13' W 063°24'0 2.9
2018-Feb-19 20:30N 17°13' W 063°24'1 1.5
2018-Feb-19 19:59N 17°14' W 063°24'1 1.3
2018-Feb-19 19:30N 17°15' W 063°24'0 0.6
2018-Feb-19 18:55N 17°15' W 063°24'1 1.7
2018-Feb-19 18:30N 17°16' W 063°24'0 0.5
2018-Feb-19 17:56N 17°16' W 063°24'1 0.7
2018-Feb-19 17:00N 17°16' W 063°24'11 5.1
2018-Feb-19 14:53N 17°24' W 063°17'3 7.5
2018-Feb-19 14:30N 17°27' W 063°17'4 7.7
2018-Feb-19 13:59N 17°31' W 063°17'4 7.7
2018-Feb-19 13:28N 17°35' W 063°16'3 5.8
2018-Feb-19 13:00N 17°38' W 063°16'1 0.8
2018-Feb-19 12:13N 17°37' W 063°16'1 7.2
2018-Feb-19 12:00N 17°38' W 063°17'3 5.9
2018-Feb-19 11:27N 17°39' W 063°20'8 5.7
2018-Feb-19 10:02N 17°42' W 063°28'0 5.9
2018-Feb-19 09:57N 17°42' W 063°29'2 3.9
2018-Feb-19 09:22N 17°42' W 063°31'2 5.5
2018-Feb-19 09:00N 17°42' W 063°29'1 1.7
2018-Feb-19 08:25N 17°43' W 063°30'0 0.8
2018-Feb-19 07:50N 17°43' W 063°30'2 5.3
2018-Feb-19 07:30N 17°43' W 063°28'2 2.9
2018-Feb-19 06:57N 17°43' W 063°30'0 0.3
2018-Feb-19 06:28N 17°43' W 063°30'1 1.3
2018-Feb-19 05:49N 17°43' W 063°29'2 3.0
2018-Feb-19 05:15N 17°43' W 063°31'1 5.6
2018-Feb-19 05:00N 17°43' W 063°30'0 0.8
2018-Feb-19 04:26N 17°43' W 063°30'0 0.3
2018-Feb-19 03:51N 17°44' W 063°30'1 2.7
2018-Feb-19 03:24N 17°44' W 063°29'2 2.1
2018-Feb-19 02:14N 17°43' W 063°31'2 0.1
2018-Feb-18 11:18N 17°44' W 063°34'2 6.3
2018-Feb-18 10:56N 17°44' W 063°31'2 5.5
2018-Feb-18 10:30N 17°44' W 063°29'3 4.0
2018-Feb-18 09:48N 17°44' W 063°32'1 2.8
2018-Feb-18 09:22N 17°44' W 063°30'1 1.8
2018-Feb-18 08:48N 17°44' W 063°29'2 5.4
2018-Feb-18 08:28N 17°44' W 063°31'1 1.4
2018-Feb-18 08:00N 17°45' W 063°30'2 3.6
2018-Feb-18 07:26N 17°45' W 063°28'2 5.0
2018-Feb-18 06:58N 17°45' W 063°31'1 2.0
2018-Feb-18 06:25N 17°46' W 063°30'1 1.4
2018-Feb-18 05:57N 17°45' W 063°29'1 2.1
2018-Feb-18 05:27N 17°45' W 063°30'1 1.6
2018-Feb-18 05:00N 17°45' W 063°30'2 4.9
2018-Feb-18 04:30N 17°46' W 063°27'3 5.2
2018-Feb-18 03:58N 17°45' W 063°30'0 0.7
2018-Feb-18 03:26N 17°45' W 063°30'3 6.0
2018-Feb-18 02:58N 17°45' W 063°27'2 4.4
2018-Feb-18 02:29N 17°45' W 063°29'2 0.1
2018-Feb-17 08:26N 17°44' W 063°32'3 1.4
2018-Feb-17 06:31N 17°46' W 063°34'0 5.8
2018-Feb-17 06:30N 17°46' W 063°34'12 0.9
2018-Feb-16 16:57N 17°35' W 063°31'1 1.1
2018-Feb-16 15:57N 17°35' W 063°30'1 1.3
2018-Feb-16 15:04N 17°34' W 063°30'0 0.4
2018-Feb-16 14:54N 17°34' W 063°30'0 0.5
2018-Feb-16 14:29N 17°34' W 063°29'5 1.3
2018-Feb-16 10:30N 17°38' W 063°32'2 1.8
2018-Feb-16 09:39N 17°38' W 063°31'1 3.2
2018-Feb-16 09:18N 17°38' W 063°30'2 3.2
2018-Feb-16 08:49N 17°38' W 063°28'1 3.3
2018-Feb-16 08:28N 17°38' W 063°27'2 3.3
2018-Feb-16 07:58N 17°38' W 063°25'4 7.8
2018-Feb-16 07:30N 17°37' W 063°21'5 7.3
2018-Feb-16 06:47N 17°35' W 063°16'3 7.3
2018-Feb-16 06:21N 17°33' W 063°14'3 7.4
2018-Feb-16 05:59N 17°32' W 063°11'19 4.8
2018-Feb-16 02:00N 17°16' W 063°22'3 1.0
2018-Feb-15 23:25N 17°15' W 063°25'2 5.0
2018-Feb-15 22:56N 17°15' W 063°22'1 0.1
2018-Feb-15 06:44N 17°15' W 063°21'15 6.3
2018-Feb-15 04:22N 17°26' W 063°10'3 8.5
2018-Feb-15 03:59N 17°29' W 063°10'12 6.9
2018-Feb-15 02:16N 17°37' W 063°19'2 7.0
2018-Feb-15 01:58N 17°37' W 063°22'4 6.8
2018-Feb-15 01:25N 17°38' W 063°25'6 1.5
2018-Feb-14 21:08N 17°39' W 063°32'0 0.1
2018-Feb-14 20:40N 17°38' W 063°32'1 1.0
2018-Feb-14 19:41N 17°39' W 063°33'0 0.1
2018-Feb-14 19:17N 17°39' W 063°33'0 0.6
2018-Feb-14 18:57N 17°39' W 063°33'0 0.4
2018-Feb-14 18:17N 17°39' W 063°33'0 0.6
2018-Feb-14 17:57N 17°39' W 063°34'13 0.9
2018-Feb-14 03:05N 17°49' W 063°41'1 9.1
2018-Feb-14 02:57N 17°50' W 063°40'5 9.3
2018-Feb-14 02:24N 17°51' W 063°35'4 9.5
2018-Feb-14 01:59N 17°53' W 063°31'5 9.2
2018-Feb-14 01:27N 17°54' W 063°26'5 9.5
2018-Feb-14 00:58N 17°55' W 063°21'5 9.5
2018-Feb-14 00:27N 17°56' W 063°16'5 9.8
2018-Feb-13 23:59N 17°58' W 063°11'6 9.4
2018-Feb-13 23:23N 17°60' W 063°06'3 5.6
2018-Feb-13 22:50N 18°00' W 063°03'0 0.0
2018-Feb-13 22:23N 18°00' W 063°03'0 0.0
2018-Feb-13 21:53N 18°00' W 063°03'0 0.0
2018-Feb-13 21:23N 18°00' W 063°03'0 0.0
2018-Feb-13 20:52N 18°00' W 063°03'0 0.0
2018-Feb-13 20:22N 18°00' W 063°03'0 0.0
2018-Feb-13 19:53N 18°00' W 063°03'0 0.0
2018-Feb-13 19:22N 18°00' W 063°03'0 0.2
2018-Feb-13 18:52N 18°01' W 063°03'0 0.0
2018-Feb-13 18:25N 18°01' W 063°03'0 0.0
2018-Feb-13 17:55N 18°01' W 063°03'  

Dump ship's entire track history